»·PEaware :: ASA2678 KSFO-KRNO

ASA2678 :: KSFO-KRNO

FLIGHT INFORMATION

Flight Status: Arrived
Operator:
Alaska Airlines
More flights by this operator :: More flights under this callsign
Pilot: Kyle M. (9350)
Aircraft: AIRBUS A319
(A319)
More flights by this aircraft type
Origin: KSFO San Francisco Intl
United States
Destination: KRNO Reno/Tahoe Intl
United States
More flights between these airports :: More routes between these airports
Route: TRUKN2 ORRCA HOBOA WALAR
File this flight plan on PilotEdge
Remarks: RMK / SIMBRIEF CptCanada on YT!
Altitude:
(Current/Filed)
27,000ft
Speed:
(Current/Filed)
452kts
Departed: 04-Feb-20 12:28 PM
Arrived: 04-Feb-20 01:03 PM
Distance/Time
Traveled:
167nm/0:35
Distance/Time
To Go:
Arrived

Flight Plot

Page will automatically refresh every two minutes.

Flight plan parsing failed; only flown route is shown


Map Options




Map Legend


Flown Route
Filed Route
Departure Airport
Arrival Airport
Navaid (VOR, NDB)
Fix

Horizontal Profiles

Position Reports

Time Latitude Longitude Heading Altitude Ground
Speed
04-Feb-20 11:55 37.616764 -122.381702 22 22ft 0kts
04-Feb-20 11:56 37.616764 -122.381702 22 22ft 0kts
04-Feb-20 11:57 37.616764 -122.381702 22 22ft 0kts
04-Feb-20 11:58 37.616764 -122.381702 22 22ft 0kts
04-Feb-20 11:59 37.616764 -122.381702 22 22ft 0kts
04-Feb-20 12:00 37.616764 -122.381702 22 22ft 0kts
04-Feb-20 12:01 37.616764 -122.381702 22 22ft 0kts
04-Feb-20 12:02 37.616764 -122.381702 22 22ft 0kts
04-Feb-20 12:03 37.616764 -122.381702 22 22ft 0kts
04-Feb-20 12:04 37.616764 -122.381702 22 22ft 0kts
04-Feb-20 12:05 37.616764 -122.381702 22 22ft 0kts
04-Feb-20 12:06 37.616764 -122.381702 22 22ft 0kts
04-Feb-20 12:07 37.616764 -122.381702 22 22ft 0kts
04-Feb-20 12:08 37.616764 -122.381702 22 22ft 0kts
04-Feb-20 12:09 37.616764 -122.381702 22 22ft 0kts
04-Feb-20 12:10 37.616764 -122.381702 22 22ft 0kts
04-Feb-20 12:11 37.616764 -122.381702 22 22ft 0kts
04-Feb-20 12:12 37.616764 -122.381702 22 22ft 0kts
04-Feb-20 12:13 37.616764 -122.381702 22 22ft 0kts
04-Feb-20 12:14 37.616764 -122.381702 22 22ft 0kts
04-Feb-20 12:15 37.616764 -122.381702 22 22ft 0kts
04-Feb-20 12:16 37.616764 -122.381702 22 22ft 0kts
04-Feb-20 12:17 37.616764 -122.381702 22 22ft 0kts
04-Feb-20 12:18 37.616438 -122.381869 22 22ft 2kts
04-Feb-20 12:19 37.616183 -122.382246 85 22ft 0kts
04-Feb-20 12:20 37.616183 -122.382246 85 22ft 0kts
04-Feb-20 12:21 37.616183 -122.382246 85 22ft 0kts
04-Feb-20 12:23 37.616183 -122.382246 85 22ft 0kts
04-Feb-20 12:24 37.615922 -122.381129 118 22ft 5kts
04-Feb-20 12:25 37.613610 -122.381631 208 22ft 13kts
04-Feb-20 12:26 37.609852 -122.384231 200 22ft 9kts
04-Feb-20 12:27 37.609219 -122.382059 28 22ft 12kts
04-Feb-20 12:28 37.637943 -122.362457 31 1255ft 160kts
04-Feb-20 12:29 37.665472 -122.310898 50 3750ft 200kts
04-Feb-20 12:30 37.702710 -122.243834 53 6477ft 258kts
04-Feb-20 12:31 37.753833 -122.182313 32 9922ft 265kts
04-Feb-20 12:32 37.820168 -122.122211 32 11708ft 331kts
04-Feb-20 12:33 37.898644 -122.050955 31 14410ft 356kts
04-Feb-20 12:34 37.980022 -121.977031 30 17118ft 367kts
04-Feb-20 12:35 38.064242 -121.900374 29 19431ft 378kts
04-Feb-20 12:36 38.147906 -121.824175 29 21419ft 389kts
04-Feb-20 12:37 38.236998 -121.742663 29 23265ft 400kts
04-Feb-20 12:38 38.328751 -121.658309 29 24654ft 414kts
04-Feb-20 12:39 38.423114 -121.570335 31 26119ft 421kts
04-Feb-20 12:40 38.508819 -121.469240 37 27343ft 418kts
04-Feb-20 12:41 38.591305 -121.364079 37 27351ft 416kts
04-Feb-20 12:42 38.665839 -121.268187 37 27350ft 416kts
04-Feb-20 12:42 38.733948 -121.180490 37 27351ft 415kts
04-Feb-20 12:44 38.829148 -121.057696 37 27331ft 414kts
04-Feb-20 12:45 38.910156 -120.952856 37 27303ft 414kts
04-Feb-20 12:45 38.977994 -120.864772 37 27066ft 416kts
04-Feb-20 12:46 39.059154 -120.759097 37 25829ft 417kts
04-Feb-20 12:47 39.137016 -120.657482 37 23132ft 398kts
04-Feb-20 12:48 39.214385 -120.556258 37 20637ft 378kts
04-Feb-20 12:49 39.286497 -120.461344 38 18346ft 362kts
04-Feb-20 12:50 39.355426 -120.370330 39 16219ft 349kts
04-Feb-20 12:51 39.424416 -120.276648 43 15891ft 361kts
04-Feb-20 12:52 39.488413 -120.178357 44 14314ft 351kts
04-Feb-20 12:53 39.544703 -120.090338 45 12716ft 272kts
04-Feb-20 12:54 39.590409 -120.020046 47 10491ft 252kts
04-Feb-20 12:55 39.636482 -119.948914 47 10210ft 257kts
04-Feb-20 12:56 39.682711 -119.877318 51 9553ft 252kts
04-Feb-20 12:57 39.679686 -119.794149 133 7839ft 237kts
04-Feb-20 12:58 39.627588 -119.768816 179 6721ft 179kts
04-Feb-20 12:59 39.584175 -119.768775 177 5733ft 142kts
04-Feb-20 13:00 39.544555 -119.769067 178 5126ft 141kts
04-Feb-20 13:01 39.505608 -119.769225 180 4424ft 126kts
04-Feb-20 13:02 39.497740 -119.770687 357 4424ft 10kts
04-Feb-20 13:03 39.501586 -119.770666 359 4424ft 17kts
04-Feb-20 13:04 39.504941 -119.771491 1 4424ft 12kts
04-Feb-20 13:05 39.508010 -119.772412 270 4424ft 10kts
04-Feb-20 13:06 39.507429 -119.773453 199 4424ft 0kts

Navigation Log

Ident Type
Flight plan parsing failed, navigation log unavailable